createdAt,value
2022-11-24T00:01:08.895Z,91930.25
2022-11-24T00:03:56.785Z,91930.78
2022-11-24T00:06:39.829Z,91926.25
2022-11-24T00:09:22.787Z,91924.66
2022-11-24T00:12:06.030Z,91938.28
2022-11-24T00:14:49.021Z,91935.75
2022-11-24T00:17:32.844Z,91934.25
2022-11-24T00:20:17.954Z,91936.25
2022-11-24T00:23:01.580Z,91943.84
2022-11-24T00:25:44.610Z,91939.31
2022-11-24T00:28:27.626Z,91945.16
2022-11-24T00:31:17.730Z,91938.63
2022-11-24T00:34:02.736Z,91940.06
2022-11-24T00:36:47.084Z,91941.50
2022-11-24T00:39:30.084Z,91939.47
2022-11-24T00:42:14.287Z,91942.41
2022-11-24T00:44:57.234Z,91947.47
2022-11-24T00:47:40.146Z,91935.97
2022-11-24T00:50:23.150Z,91936.22
2022-11-24T00:53:07.518Z,91940.34
2022-11-24T00:55:50.993Z,91947.03
2022-11-24T00:58:34.767Z,91950.13
2022-11-24T01:01:20.649Z,91950.13
2022-11-24T01:04:03.773Z,91966.16
2022-11-24T01:06:46.728Z,91954.28
2022-11-24T01:09:31.106Z,91966.03
2022-11-24T01:12:14.033Z,91970.19
2022-11-24T01:14:57.155Z,91963.25
2022-11-24T01:17:40.171Z,91973.25
2022-11-24T01:20:23.248Z,91982.63
2022-11-24T01:23:06.246Z,91979.28
2022-11-24T01:25:50.645Z,91972.47
2022-11-24T01:28:33.649Z,91982.88
2022-11-24T01:31:17.613Z,91979.78
2022-11-24T01:34:00.679Z,91981.66
2022-11-24T01:36:43.677Z,91984.31
2022-11-24T01:39:26.574Z,91988.56
2022-11-24T01:42:10.953Z,91991.94
2022-11-24T01:45:31.976Z,91995.25
2022-11-24T01:48:25.968Z,91996.88
2022-11-24T01:51:16.119Z,91998.47
2022-11-24T01:54:03.054Z,91999.41
2022-11-24T01:56:52.421Z,91995.25
2022-11-24T01:59:37.453Z,91996.19
2022-11-24T02:02:21.564Z,91996.19
2022-11-24T02:05:09.249Z,92009.81
2022-11-24T02:07:54.427Z,92010.97
2022-11-24T02:10:38.578Z,92012.84
2022-11-24T02:13:22.749Z,92017.81
2022-11-24T02:16:09.726Z,92022.06
2022-11-24T02:18:52.998Z,92027.13
2022-11-24T02:21:36.026Z,92033.13
2022-11-24T02:24:26.270Z,92028.88
2022-11-24T02:27:11.283Z,92024.72
2022-11-24T02:29:54.391Z,92033.97
2022-11-24T02:32:41.557Z,92032.34
2022-11-24T02:35:24.586Z,92040.50
2022-11-24T02:38:07.588Z,92044.78
2022-11-24T02:40:50.873Z,92046.63
2022-11-24T02:43:39.885Z,92051.59
2022-11-24T02:46:23.010Z,92054.94
2022-11-24T02:49:06.031Z,92053.19
2022-11-24T02:51:49.145Z,92052.41
2022-11-24T02:54:32.467Z,92059.88
2022-11-24T02:57:16.368Z,92065.88
2022-11-24T03:00:00.812Z,92066.81
2022-11-24T03:02:43.762Z,92066.00
2022-11-24T03:05:27.422Z,92066.00
2022-11-24T03:08:10.402Z,92068.56
2022-11-24T03:10:53.344Z,92077.78
2022-11-24T03:13:36.248Z,92075.34
2022-11-24T03:16:20.899Z,92073.63
2022-11-24T03:19:04.811Z,92076.28
2022-11-24T03:21:47.761Z,92080.41
2022-11-24T03:24:30.983Z,92082.97
2022-11-24T03:27:14.577Z,92084.69
2022-11-24T03:29:57.547Z,92087.25
2022-11-24T03:32:42.639Z,92093.25
2022-11-24T03:35:26.010Z,92093.94
2022-11-24T03:38:09.047Z,92098.06
2022-11-24T03:40:52.331Z,92101.41
2022-11-24T03:43:40.406Z,92102.34
2022-11-24T03:46:26.360Z,92111.56
2022-11-24T03:49:10.953Z,92109.72
2022-11-24T03:51:53.889Z,92118.94
2022-11-24T03:54:36.846Z,92118.13
2022-11-24T03:57:19.949Z,92125.75
2022-11-24T04:00:04.900Z,92129.09
2022-11-24T04:02:48.706Z,92128.16
2022-11-24T04:05:36.349Z,92124.81
2022-11-24T04:08:19.801Z,92138.19
2022-11-24T04:11:02.801Z,92138.06
2022-11-24T04:13:47.732Z,92143.16
2022-11-24T04:16:30.790Z,92141.28
2022-11-24T04:19:13.760Z,92140.38
2022-11-24T04:21:58.122Z,92143.59
2022-11-24T04:24:41.100Z,92149.47
2022-11-24T04:27:24.055Z,92151.06
2022-11-24T04:30:08.587Z,92154.53
2022-11-24T04:32:51.629Z,92158.00
2022-11-24T04:35:34.620Z,92156.28
2022-11-24T04:39:25.368Z,92148.78
2022-11-24T04:41:21.935Z,92157.31
2022-11-24T04:44:04.976Z,92166.69
2022-11-24T04:46:48.072Z,92163.22
2022-11-24T04:49:31.407Z,92167.22
2022-11-24T04:52:14.400Z,92172.31
2022-11-24T04:54:58.743Z,92174.72
2022-11-24T04:57:41.740Z,92170.31
2022-11-24T05:00:24.686Z,92168.47
2022-11-24T05:03:07.648Z,92176.78
2022-11-24T05:05:50.954Z,92189.34
2022-11-24T05:08:33.943Z,92187.75
2022-11-24T05:11:18.670Z,92192.56
2022-11-24T05:14:02.026Z,92196.84
2022-11-24T05:16:45.048Z,92194.31
2022-11-24T05:19:31.229Z,92198.47
2022-11-24T05:22:15.417Z,92207.56
2022-11-24T05:24:58.597Z,92205.16
2022-11-24T05:27:42.962Z,92218.53
2022-11-24T05:30:25.889Z,92212.53
2022-11-24T05:33:11.587Z,92212.63
2022-11-24T05:35:54.539Z,92227.88
2022-11-24T05:38:37.495Z,92228.00
2022-11-24T05:41:20.438Z,92238.94
2022-11-24T05:44:04.854Z,92238.94
2022-11-24T05:46:47.894Z,92246.13
2022-11-24T05:49:30.905Z,92236.22
2022-11-24T05:52:13.962Z,92239.69
2022-11-24T05:54:56.968Z,92240.47
2022-11-24T05:57:39.944Z,92248.78
2022-11-24T06:00:24.319Z,92248.78
2022-11-24T06:03:07.424Z,92254.69
2022-11-24T06:05:50.497Z,92265.63
2022-11-24T06:08:33.422Z,92264.69
2022-11-24T06:11:19.077Z,92268.72
2022-11-24T06:14:04.663Z,92262.63
2022-11-24T06:16:51.441Z,92274.25
2022-11-24T06:19:37.477Z,92279.19
2022-11-24T06:22:24.611Z,92278.88
2022-11-24T06:25:09.321Z,92276.88
2022-11-24T06:27:52.295Z,92285.88
2022-11-24T06:30:35.195Z,92297.53
2022-11-24T06:33:19.638Z,92289.78
2022-11-24T06:36:03.580Z,92290.59
2022-11-24T06:38:46.499Z,92286.31
2022-11-24T06:41:29.664Z,92287.91
2022-11-24T06:44:12.657Z,92298.78
2022-11-24T06:46:55.677Z,92299.47
2022-11-24T06:49:39.969Z,92308.56
2022-11-24T06:52:22.929Z,92312.97
2022-11-24T06:55:06.759Z,92305.22
2022-11-24T06:57:49.733Z,92309.84
2022-11-24T07:00:32.729Z,92318.69
2022-11-24T07:03:19.052Z,92326.88
2022-11-24T07:06:03.494Z,92322.59
2022-11-24T07:08:46.685Z,92324.78
2022-11-24T07:11:29.667Z,92330.56
2022-11-24T07:14:12.763Z,92330.28
2022-11-24T07:16:55.784Z,92334.34
2022-11-24T07:19:38.770Z,92336.75
2022-11-24T07:22:23.259Z,92337.44
2022-11-24T07:25:09.785Z,92345.06
2022-11-24T07:27:57.111Z,92351.91
2022-11-24T07:30:40.057Z,92352.56
2022-11-24T07:33:25.285Z,92349.78
2022-11-24T07:36:10.018Z,92354.50
2022-11-24T07:38:54.371Z,92355.19
2022-11-24T07:41:37.639Z,92365.94
2022-11-24T07:44:20.547Z,92364.88
2022-11-24T07:47:03.621Z,92374.91
2022-11-24T07:49:46.579Z,92367.41
2022-11-24T07:52:29.556Z,92380.31
2022-11-24T07:55:13.891Z,92371.66
2022-11-24T07:58:00.495Z,92373.03
2022-11-24T08:00:43.474Z,92372.75
2022-11-24T08:03:26.845Z,92383.38
2022-11-24T08:06:28.992Z,92370.41
2022-11-24T08:09:13.065Z,92378.59
2022-11-24T08:11:57.420Z,92372.44
2022-11-24T08:14:40.325Z,92375.81
2022-11-24T08:17:23.313Z,92381.56
2022-11-24T08:20:07.433Z,92382.25
2022-11-24T08:22:50.606Z,92380.41
2022-11-24T08:25:33.643Z,92384.44
2022-11-24T08:28:17.999Z,92389.28
2022-11-24T08:31:05.241Z,92384.06
2022-11-24T08:33:48.796Z,92385.41
2022-11-24T08:36:32.279Z,92385.03
2022-11-24T08:39:15.224Z,92392.44
2022-11-24T08:41:58.430Z,92391.25
2022-11-24T08:44:43.086Z,92396.88
2022-11-24T08:47:26.074Z,92398.38
2022-11-24T08:50:09.951Z,92397.19
2022-11-24T08:52:53.721Z,92398.81
2022-11-24T08:55:36.641Z,92392.66
2022-11-24T08:58:19.677Z,92397.63
2022-11-24T09:01:08.267Z,92388.13
2022-11-24T09:03:52.204Z,92393.88
2022-11-24T09:06:35.272Z,92392.00
2022-11-24T09:09:18.286Z,92395.94
2022-11-24T09:12:01.325Z,92388.28
2022-11-24T09:14:44.304Z,92384.56
2022-11-24T09:17:28.669Z,92392.06
2022-11-24T09:20:11.838Z,92391.13
2022-11-24T09:22:54.760Z,92387.53
2022-11-24T09:25:37.892Z,92394.22
2022-11-24T09:28:20.899Z,92396.41
2022-11-24T09:31:04.932Z,92392.78
2022-11-24T09:33:49.379Z,92403.53
2022-11-24T09:36:32.601Z,92402.47
2022-11-24T09:39:15.511Z,92386.91
2022-11-24T09:42:08.603Z,92393.50
2022-11-24T09:45:48.863Z,92399.16
2022-11-24T09:48:30.563Z,92394.34
2022-11-24T09:51:16.579Z,92396.63
2022-11-24T09:54:03.737Z,92410.75
2022-11-24T09:56:48.021Z,92411.13
2022-11-24T09:59:31.335Z,92403.50
2022-11-24T10:02:14.985Z,92413.31
2022-11-24T10:04:58.038Z,92409.00
2022-11-24T10:07:49.652Z,92412.09
2022-11-24T10:10:42.032Z,92417.19
2022-11-24T10:13:49.944Z,92412.00
2022-11-24T10:16:46.526Z,92408.25
2022-11-24T10:19:40.445Z,92408.09
2022-11-24T10:22:37.913Z,92408.66
2022-11-24T10:25:27.027Z,92409.22
2022-11-24T10:28:13.786Z,92411.38
2022-11-24T10:31:11.390Z,92415.25
2022-11-24T10:33:54.374Z,92420.22
2022-11-24T10:36:44.972Z,92423.44
2022-11-24T10:39:32.560Z,92422.50
2022-11-24T10:42:22.655Z,92422.63
2022-11-24T10:45:12.766Z,92421.44
2022-11-24T10:47:55.721Z,92429.75
2022-11-24T10:50:41.795Z,92433.00
2022-11-24T10:53:29.095Z,92424.41
2022-11-24T10:56:12.050Z,92425.09
2022-11-24T10:58:56.377Z,92433.28
2022-11-24T11:01:39.456Z,92431.50
2022-11-24T11:04:26.304Z,92433.00
2022-11-24T11:07:28.018Z,92430.19
2022-11-24T11:10:20.577Z,92434.22
2022-11-24T11:13:25.699Z,92433.03
2022-11-24T11:16:27.464Z,92434.75
2022-11-24T11:19:50.084Z,92426.44
2022-11-24T11:22:37.180Z,92421.50
2022-11-24T11:25:23.250Z,92413.44
2022-11-24T11:28:22.975Z,92417.06
2022-11-24T11:31:17.908Z,92415.16
2022-11-24T11:34:23.749Z,92429.00
2022-11-24T11:37:14.693Z,92428.06
2022-11-24T11:39:59.088Z,92427.25
2022-11-24T11:43:01.821Z,92428.06
2022-11-24T11:45:47.701Z,92428.06
2022-11-24T11:48:42.268Z,92425.50
2022-11-24T11:51:48.616Z,92429.00
2022-11-24T11:54:45.967Z,92428.75
2022-11-24T11:57:39.085Z,92428.75
2022-11-24T12:00:22.966Z,92429.53
2022-11-24T12:03:31.210Z,92428.47
2022-11-24T12:06:29.127Z,92427.38
2022-11-24T12:09:26.121Z,92417.72
2022-11-24T12:12:40.789Z,92416.50
2022-11-24T12:15:32.426Z,92408.97
2022-11-24T12:18:58.746Z,92411.25
2022-11-24T12:21:38.014Z,92416.91
2022-11-24T12:24:35.804Z,92415.81
2022-11-24T12:27:29.485Z,92407.06
2022-11-24T12:30:14.030Z,92413.66
2022-11-24T12:33:15.255Z,92417.94
2022-11-24T12:36:07.791Z,92410.19
2022-11-24T12:39:01.285Z,92409.19
2022-11-24T12:41:59.771Z,92408.25
2022-11-24T12:45:13.117Z,92412.56
2022-11-24T12:48:14.957Z,92408.25
2022-11-24T12:51:00.031Z,92415.81
2022-11-24T12:53:45.704Z,92423.31
2022-11-24T12:56:36.898Z,92419.69
2022-11-24T12:59:31.643Z,92422.91
2022-11-24T13:02:25.559Z,92427.22
2022-11-24T13:05:21.087Z,92429.75
2022-11-24T13:08:06.415Z,92426.41
2022-11-24T13:10:57.982Z,92436.91
2022-11-24T13:13:59.012Z,92435.16
2022-11-24T13:20:17.221Z,92439.47
2022-11-24T13:23:14.942Z,92439.22
2022-11-24T13:26:16.383Z,92446.31
2022-11-24T13:29:09.275Z,92449.00
2022-11-24T13:32:34.381Z,92450.88
2022-11-24T13:35:19.043Z,92445.94
2022-11-24T13:38:01.759Z,92451.44
2022-11-24T13:40:59.815Z,92451.56
2022-11-24T13:44:20.742Z,92455.31
2022-11-24T13:47:06.816Z,92455.31
2022-11-24T13:49:50.373Z,92460.56
2022-11-24T13:52:45.220Z,92464.06
2022-11-24T13:55:35.764Z,92456.41
2022-11-24T13:58:32.538Z,92461.50
2022-11-24T14:01:20.430Z,92459.09
2022-11-24T14:04:33.554Z,92462.59
2022-11-24T14:07:17.978Z,92480.44
2022-11-24T14:10:03.212Z,92483.13
2022-11-24T14:12:46.119Z,92481.50
2022-11-24T14:15:34.252Z,92483.25
2022-11-24T14:18:23.209Z,92487.53
2022-11-24T14:21:23.379Z,92488.78
2022-11-24T14:24:13.625Z,92489.84
2022-11-24T14:26:58.020Z,92499.38
2022-11-24T14:29:54.518Z,92498.69
2022-11-24T14:32:38.017Z,92500.44
2022-11-24T14:35:25.257Z,92504.63
2022-11-24T14:38:12.320Z,92509.47
2022-11-24T14:40:56.732Z,92516.19
2022-11-24T14:43:41.106Z,92517.91
2022-11-24T14:46:24.086Z,92515.25
2022-11-24T14:49:07.337Z,92522.22
2022-11-24T14:51:56.770Z,92524.22
2022-11-24T14:54:47.896Z,92524.09
2022-11-24T14:57:33.462Z,92528.25
2022-11-24T15:04:54.310Z,92540.75
2022-11-24T15:07:30.554Z,92541.69
2022-11-24T15:10:26.647Z,92541.81
2022-11-24T15:13:18.664Z,92555.50
2022-11-24T15:16:04.928Z,92554.72
2022-11-24T15:18:50.022Z,92552.69
2022-11-24T15:21:34.127Z,92555.38
2022-11-24T15:24:18.664Z,92562.47
2022-11-24T15:27:01.837Z,92558.84
2022-11-24T15:29:44.843Z,92569.31
2022-11-24T15:32:29.131Z,92571.59
2022-11-24T15:35:13.115Z,92570.78
2022-11-24T15:37:56.157Z,92575.03
2022-11-24T15:40:39.366Z,92580.28
2022-11-24T15:43:29.614Z,92590.56
2022-11-24T15:46:12.817Z,92583.28
2022-11-24T15:48:57.492Z,92587.22
2022-11-24T15:51:43.863Z,92595.53
2022-11-24T15:54:27.669Z,92595.53
2022-11-24T15:57:11.914Z,92597.34
2022-11-24T15:59:54.882Z,92595.19
2022-11-24T16:02:37.962Z,92597.75
2022-11-24T16:05:22.337Z,92602.53
2022-11-24T16:08:05.775Z,92603.59
2022-11-24T16:10:48.933Z,92599.56
2022-11-24T16:13:32.171Z,92606.28
2022-11-24T16:16:16.470Z,92599.06
2022-11-24T16:18:59.682Z,92604.03
2022-11-24T16:21:44.057Z,92601.47
2022-11-24T16:24:27.007Z,92606.31
2022-11-24T16:27:10.378Z,92608.63
2022-11-24T16:29:53.331Z,92604.47
2022-11-24T16:32:37.314Z,92604.47
2022-11-24T16:35:20.351Z,92614.53
2022-11-24T16:38:04.740Z,92616.13
2022-11-24T16:40:52.491Z,92617.75
2022-11-24T16:43:35.459Z,92615.66
2022-11-24T16:46:21.613Z,92621.53
2022-11-24T16:49:04.663Z,92630.81
2022-11-24T16:51:47.759Z,92622.47
2022-11-24T16:54:32.720Z,92640.47
2022-11-24T16:57:16.573Z,92639.38
2022-11-24T16:59:59.507Z,92648.53
2022-11-24T17:02:42.535Z,92649.09
2022-11-24T17:05:25.639Z,92648.94
2022-11-24T17:08:09.377Z,92654.97
2022-11-24T17:10:53.771Z,92652.44
2022-11-24T17:13:36.806Z,92658.47
2022-11-24T17:16:21.899Z,92662.78
2022-11-24T17:19:05.535Z,92656.06
2022-11-24T17:21:48.548Z,92661.94
2022-11-24T17:24:31.601Z,92666.25
2022-11-24T17:27:16.029Z,92665.44
2022-11-24T17:29:59.171Z,92671.50
2022-11-24T17:32:42.161Z,92666.25
2022-11-24T17:35:25.146Z,92668.94
2022-11-24T17:38:08.281Z,92665.44
2022-11-24T17:40:51.237Z,92666.41
2022-11-24T17:43:35.877Z,92669.75
2022-11-24T17:46:20.635Z,92668.94
2022-11-24T17:49:04.453Z,92670.53
2022-11-24T17:51:50.534Z,92664.78
2022-11-24T17:54:48.993Z,92669.88
2022-11-24T17:57:31.985Z,92672.53
2022-11-24T18:00:17.742Z,92672.66
2022-11-24T18:03:01.446Z,92675.22
2022-11-24T18:05:44.506Z,92679.50
2022-11-24T18:08:27.850Z,92675.22
2022-11-24T18:11:13.422Z,92681.13
2022-11-24T18:14:00.592Z,92678.47
2022-11-24T18:16:45.772Z,92685.97
2022-11-24T18:19:28.745Z,92681.81
2022-11-24T18:22:11.734Z,92686.78
2022-11-24T18:24:54.729Z,92685.97
2022-11-24T18:27:37.738Z,92685.97
2022-11-24T18:30:21.244Z,92692.69
2022-11-24T18:33:05.654Z,92685.84
2022-11-24T18:35:56.801Z,92691.91
2022-11-24T18:38:39.747Z,92694.31
2022-11-24T18:41:22.764Z,92691.75
2022-11-24T18:44:08.411Z,92697.66
2022-11-24T18:46:51.634Z,92699.41
2022-11-24T18:49:35.920Z,92699.41
2022-11-24T18:52:18.868Z,92701.97
2022-11-24T18:55:03.933Z,92705.31
2022-11-24T18:57:46.943Z,92707.75
2022-11-24T19:00:29.990Z,92705.75
2022-11-24T19:03:13.032Z,92699.16
2022-11-24T19:05:57.302Z,92705.88
2022-11-24T19:08:40.291Z,92696.47
2022-11-24T19:11:25.330Z,92695.78
2022-11-24T19:14:10.465Z,92701.56
2022-11-24T19:16:53.435Z,92701.81
2022-11-24T19:19:36.489Z,92708.44
2022-11-24T19:22:20.837Z,92710.06
2022-11-24T19:25:03.803Z,92712.22
2022-11-24T19:27:46.740Z,92713.69
2022-11-24T19:30:30.285Z,92711.97
2022-11-24T19:33:13.361Z,92706.75
2022-11-24T19:36:03.556Z,92719.63
2022-11-24T19:38:52.207Z,92714.53
2022-11-24T19:41:35.471Z,92716.25
2022-11-24T19:44:18.689Z,92727.28
2022-11-24T19:47:01.665Z,92719.72
2022-11-24T19:49:44.654Z,92727.38
2022-11-24T19:52:27.624Z,92729.13
2022-11-24T19:55:12.085Z,92736.78
2022-11-24T19:57:55.264Z,92740.97
2022-11-24T20:00:38.264Z,92742.00
2022-11-24T20:03:21.231Z,92736.91
2022-11-24T20:06:05.227Z,92741.22
2022-11-24T20:08:48.255Z,92749.94
2022-11-24T20:11:32.655Z,92746.56
2022-11-24T20:14:18.909Z,92752.59
2022-11-24T20:17:01.972Z,92752.81
2022-11-24T20:19:45.035Z,92755.38
2022-11-24T20:22:27.993Z,92752.72
2022-11-24T20:25:11.578Z,92757.00
2022-11-24T20:27:55.911Z,92748.41
2022-11-24T20:30:38.935Z,92753.50
2022-11-24T20:33:21.913Z,92753.41
2022-11-24T20:36:06.235Z,92760.13
2022-11-24T20:38:50.873Z,92761.75
2022-11-24T20:41:34.916Z,92759.31
2022-11-24T20:44:21.379Z,92764.53
2022-11-24T20:47:06.297Z,92765.47
2022-11-24T20:49:49.282Z,92769.88
2022-11-24T20:52:32.251Z,92764.66
2022-11-24T20:55:15.321Z,92764.53
2022-11-24T20:57:58.331Z,92767.78
2022-11-24T21:00:42.659Z,92770.34
2022-11-24T21:03:25.838Z,92773.69
2022-11-24T21:06:10.037Z,92771.00
2022-11-24T21:08:53.219Z,92780.16
2022-11-24T21:11:36.821Z,92779.09
2022-11-24T21:14:19.714Z,92780.72
2022-11-24T21:17:04.029Z,92779.91
2022-11-24T21:19:47.288Z,92789.28
2022-11-24T21:22:30.449Z,92783.50
2022-11-24T21:25:13.396Z,92791.97
2022-11-24T21:27:56.356Z,92791.72
2022-11-24T21:30:39.772Z,92786.63
2022-11-24T21:33:24.636Z,92789.19
2022-11-24T21:36:08.382Z,92791.72
2022-11-24T21:38:52.684Z,92792.66
2022-11-24T21:41:35.704Z,92795.09
2022-11-24T21:44:18.711Z,92798.44
2022-11-24T21:47:01.693Z,92797.50
2022-11-24T21:49:45.990Z,92789.59
2022-11-24T21:52:29.017Z,92786.25
2022-11-24T21:55:11.993Z,92787.28
2022-11-24T21:57:55.025Z,92782.88
2022-11-24T22:00:37.971Z,92791.34
2022-11-24T22:03:21.413Z,92799.00
2022-11-24T22:06:06.477Z,92800.72
2022-11-24T22:08:50.312Z,92799.94
2022-11-24T22:11:33.223Z,92795.53
2022-11-24T22:14:16.496Z,92799.56
2022-11-24T22:16:59.418Z,92808.03
2022-11-24T22:19:42.456Z,92800.38
2022-11-24T22:22:26.849Z,92806.03
2022-11-24T22:25:10.205Z,92801.88
2022-11-24T22:27:53.194Z,92800.94
2022-11-24T22:30:36.465Z,92795.00
2022-11-24T22:33:19.454Z,92800.56
2022-11-24T22:36:03.255Z,92792.91
2022-11-24T22:38:48.196Z,92791.16
2022-11-24T22:41:31.626Z,92796.16
2022-11-24T22:44:14.617Z,92798.69
2022-11-24T22:46:59.881Z,92804.59
2022-11-24T22:49:42.946Z,92801.94
2022-11-24T22:52:25.890Z,92808.66
2022-11-24T22:55:10.497Z,92803.41
2022-11-24T22:57:56.858Z,92806.09
2022-11-24T23:00:40.112Z,92803.41
2022-11-24T23:03:23.108Z,92803.41
2022-11-24T23:06:09.493Z,92810.53
2022-11-24T23:08:53.518Z,92811.56
2022-11-24T23:11:39.901Z,92809.97
2022-11-24T23:14:22.803Z,92803.25
2022-11-24T23:17:05.740Z,92805.81
2022-11-24T23:19:48.926Z,92807.78
2022-11-24T23:22:31.898Z,92804.41
2022-11-24T23:25:14.914Z,92791.66
2022-11-24T23:27:59.285Z,92801.88
2022-11-24T23:30:42.232Z,92809.63
2022-11-24T23:33:25.249Z,92804.91
2022-11-24T23:36:10.643Z,92810.00
2022-11-24T23:38:54.482Z,92815.00
2022-11-24T23:41:37.522Z,92806.53
2022-11-24T23:44:22.139Z,92806.66
2022-11-24T23:47:04.984Z,92805.84
2022-11-24T23:49:47.894Z,92803.97
2022-11-24T23:52:31.457Z,92801.56
2022-11-24T23:55:14.461Z,92798.88
2022-11-24T23:57:57.415Z,92801.31
